sensor_id;sensor_type;location;lat;lon;timestamp;P1;durP1;ratioP1;P2;durP2;ratioP2
29384;SDS011;16367;48.736;9.218;2023-03-01T00:01:54;18.38;;;7.68;;
29384;SDS011;16367;48.736;9.218;2023-03-01T00:03:58;18.65;;;8.15;;
29384;SDS011;16367;48.736;9.218;2023-03-01T00:06:01;19.63;;;8.02;;
29384;SDS011;16367;48.736;9.218;2023-03-01T00:08:04;20.65;;;8.55;;
29384;SDS011;16367;48.736;9.218;2023-03-01T00:10:07;19.02;;;8.73;;
29384;SDS011;16367;48.736;9.218;2023-03-01T00:12:11;21.33;;;8.70;;
29384;SDS011;16367;48.736;9.218;2023-03-01T00:14:13;18.30;;;7.43;;
29384;SDS011;16367;48.736;9.218;2023-03-01T00:16:20;18.42;;;8.45;;
29384;SDS011;16367;48.736;9.218;2023-03-01T00:18:24;18.52;;;7.82;;
29384;SDS011;16367;48.736;9.218;2023-03-01T00:20:26;18.80;;;8.07;;
29384;SDS011;16367;48.736;9.218;2023-03-01T00:22:31;19.05;;;8.68;;
29384;SDS011;16367;48.736;9.218;2023-03-01T00:24:34;20.88;;;8.88;;
29384;SDS011;16367;48.736;9.218;2023-03-01T00:26:36;19.70;;;8.10;;
29384;SDS011;16367;48.736;9.218;2023-03-01T00:28:39;18.23;;;8.52;;
29384;SDS011;16367;48.736;9.218;2023-03-01T00:30:42;20.70;;;9.15;;
29384;SDS011;16367;48.736;9.218;2023-03-01T00:32:46;17.92;;;8.52;;
29384;SDS011;16367;48.736;9.218;2023-03-01T00:34:49;18.40;;;7.68;;
29384;SDS011;16367;48.736;9.218;2023-03-01T00:36:56;18.38;;;8.23;;
29384;SDS011;16367;48.736;9.218;2023-03-01T00:39:09;19.20;;;8.55;;
29384;SDS011;16367;48.736;9.218;2023-03-01T00:41:14;18.83;;;8.23;;
29384;SDS011;16367;48.736;9.218;2023-03-01T00:43:19;22.40;;;8.88;;
29384;SDS011;16367;48.736;9.218;2023-03-01T00:45:22;19.05;;;8.10;;
29384;SDS011;16367;48.736;9.218;2023-03-01T00:47:25;23.38;;;9.10;;
29384;SDS011;16367;48.736;9.218;2023-03-01T00:49:29;20.25;;;8.80;;
29384;SDS011;16367;48.736;9.218;2023-03-01T00:51:32;18.60;;;9.25;;
29384;SDS011;16367;48.736;9.218;2023-03-01T00:53:34;20.42;;;9.13;;
29384;SDS011;16367;48.736;9.218;2023-03-01T00:55:38;18.77;;;8.60;;
29384;SDS011;16367;48.736;9.218;2023-03-01T00:57:40;19.50;;;8.82;;
29384;SDS011;16367;48.736;9.218;2023-03-01T00:59:43;19.35;;;8.85;;
29384;SDS011;16367;48.736;9.218;2023-03-01T01:01:45;20.80;;;8.68;;
29384;SDS011;16367;48.736;9.218;2023-03-01T01:03:49;20.83;;;8.85;;
29384;SDS011;16367;48.736;9.218;2023-03-01T01:05:54;21.23;;;8.50;;
29384;SDS011;16367;48.736;9.218;2023-03-01T01:07:57;17.48;;;8.88;;
29384;SDS011;16367;48.736;9.218;2023-03-01T01:10:00;22.30;;;10.00;;
29384;SDS011;16367;48.736;9.218;2023-03-01T01:12:03;19.88;;;9.25;;
29384;SDS011;16367;48.736;9.218;2023-03-01T01:14:06;22.05;;;8.93;;
29384;SDS011;16367;48.736;9.218;2023-03-01T01:16:08;17.98;;;8.77;;
29384;SDS011;16367;48.736;9.218;2023-03-01T01:18:11;24.42;;;10.05;;
29384;SDS011;16367;48.736;9.218;2023-03-01T01:20:14;19.65;;;9.02;;
29384;SDS011;16367;48.736;9.218;2023-03-01T01:22:18;20.75;;;9.32;;
29384;SDS011;16367;48.736;9.218;2023-03-01T01:24:21;21.65;;;10.13;;
29384;SDS011;16367;48.736;9.218;2023-03-01T01:26:24;19.58;;;9.68;;
29384;SDS011;16367;48.736;9.218;2023-03-01T01:28:29;22.33;;;9.55;;
29384;SDS011;16367;48.736;9.218;2023-03-01T01:30:32;18.75;;;8.95;;
29384;SDS011;16367;48.736;9.218;2023-03-01T01:32:35;20.10;;;8.95;;
29384;SDS011;16367;48.736;9.218;2023-03-01T01:34:38;20.52;;;9.20;;
29384;SDS011;16367;48.736;9.218;2023-03-01T01:36:41;19.95;;;9.00;;
29384;SDS011;16367;48.736;9.218;2023-03-01T01:38:46;22.08;;;9.85;;
29384;SDS011;16367;48.736;9.218;2023-03-01T01:40:49;20.80;;;9.48;;
29384;SDS011;16367;48.736;9.218;2023-03-01T01:42:52;19.85;;;8.77;;
29384;SDS011;16367;48.736;9.218;2023-03-01T01:47:34;20.85;;;9.35;;
29384;SDS011;16367;48.736;9.218;2023-03-01T01:49:37;26.83;;;9.05;;
29384;SDS011;16367;48.736;9.218;2023-03-01T01:51:45;27.98;;;11.00;;
29384;SDS011;16367;48.736;9.218;2023-03-01T01:53:51;21.42;;;9.90;;
29384;SDS011;16367;48.736;9.218;2023-03-01T01:55:58;21.85;;;9.23;;
29384;SDS011;16367;48.736;9.218;2023-03-01T01:58:04;24.95;;;9.98;;
29384;SDS011;16367;48.736;9.218;2023-03-01T02:00:10;25.00;;;10.32;;
29384;SDS011;16367;48.736;9.218;2023-03-01T02:02:15;21.25;;;10.02;;
29384;SDS011;16367;48.736;9.218;2023-03-01T02:04:18;22.05;;;10.50;;
29384;SDS011;16367;48.736;9.218;2023-03-01T02:06:22;22.15;;;8.80;;
29384;SDS011;16367;48.736;9.218;2023-03-01T02:08:31;24.60;;;10.48;;
29384;SDS011;16367;48.736;9.218;2023-03-01T02:10:38;19.25;;;9.00;;
29384;SDS011;16367;48.736;9.218;2023-03-01T02:12:42;23.30;;;9.35;;
29384;SDS011;16367;48.736;9.218;2023-03-01T02:14:45;24.73;;;10.80;;
29384;SDS011;16367;48.736;9.218;2023-03-01T02:16:48;21.33;;;9.73;;
29384;SDS011;16367;48.736;9.218;2023-03-01T02:18:51;22.60;;;10.95;;
29384;SDS011;16367;48.736;9.218;2023-03-01T02:20:59;21.95;;;10.35;;
29384;SDS011;16367;48.736;9.218;2023-03-01T02:23:10;18.00;;;8.68;;
29384;SDS011;16367;48.736;9.218;2023-03-01T02:25:21;21.75;;;8.98;;
29384;SDS011;16367;48.736;9.218;2023-03-01T02:27:29;21.52;;;9.18;;
29384;SDS011;16367;48.736;9.218;2023-03-01T02:29:40;20.17;;;8.90;;
29384;SDS011;16367;48.736;9.218;2023-03-01T02:31:45;24.90;;;10.13;;
29384;SDS011;16367;48.736;9.218;2023-03-01T02:33:46;24.80;;;9.50;;
29384;SDS011;16367;48.736;9.218;2023-03-01T02:35:50;22.60;;;9.93;;
29384;SDS011;16367;48.736;9.218;2023-03-01T02:37:54;18.42;;;8.57;;
29384;SDS011;16367;48.736;9.218;2023-03-01T02:39:59;22.40;;;9.98;;
29384;SDS011;16367;48.736;9.218;2023-03-01T02:42:06;22.33;;;9.95;;
29384;SDS011;16367;48.736;9.218;2023-03-01T02:44:11;19.50;;;9.32;;
29384;SDS011;16367;48.736;9.218;2023-03-01T02:46:16;23.38;;;9.77;;
29384;SDS011;16367;48.736;9.218;2023-03-01T02:48:21;28.35;;;11.85;;
29384;SDS011;16367;48.736;9.218;2023-03-01T02:50:38;23.20;;;9.82;;
29384;SDS011;16367;48.736;9.218;2023-03-01T02:52:52;21.40;;;8.82;;
29384;SDS011;16367;48.736;9.218;2023-03-01T02:55:01;22.35;;;10.15;;
29384;SDS011;16367;48.736;9.218;2023-03-01T02:57:08;23.85;;;9.20;;
29384;SDS011;16367;48.736;9.218;2023-03-01T02:59:11;22.83;;;10.02;;
29384;SDS011;16367;48.736;9.218;2023-03-01T03:01:15;23.55;;;9.65;;
29384;SDS011;16367;48.736;9.218;2023-03-01T03:03:19;22.65;;;9.77;;
29384;SDS011;16367;48.736;9.218;2023-03-01T03:05:24;22.02;;;9.32;;
29384;SDS011;16367;48.736;9.218;2023-03-01T03:07:28;24.48;;;8.60;;
29384;SDS011;16367;48.736;9.218;2023-03-01T03:09:30;24.25;;;10.73;;
29384;SDS011;16367;48.736;9.218;2023-03-01T03:11:33;21.88;;;9.23;;
29384;SDS011;16367;48.736;9.218;2023-03-01T03:13:37;26.23;;;9.70;;
29384;SDS011;16367;48.736;9.218;2023-03-01T03:15:49;25.20;;;10.50;;
29384;SDS011;16367;48.736;9.218;2023-03-01T03:17:53;21.08;;;9.35;;
29384;SDS011;16367;48.736;9.218;2023-03-01T03:19:56;21.55;;;7.78;;
29384;SDS011;16367;48.736;9.218;2023-03-01T03:21:59;21.63;;;9.85;;
29384;SDS011;16367;48.736;9.218;2023-03-01T03:24:03;19.42;;;9.23;;
29384;SDS011;16367;48.736;9.218;2023-03-01T03:26:06;20.90;;;10.15;;
29384;SDS011;16367;48.736;9.218;2023-03-01T03:28:09;26.83;;;10.57;;
29384;SDS011;16367;48.736;9.218;2023-03-01T03:30:13;21.10;;;9.05;;
29384;SDS011;16367;48.736;9.218;2023-03-01T03:32:17;21.30;;;9.35;;
29384;SDS011;16367;48.736;9.218;2023-03-01T03:34:21;22.60;;;10.15;;
29384;SDS011;16367;48.736;9.218;2023-03-01T03:36:24;22.25;;;10.45;;
29384;SDS011;16367;48.736;9.218;2023-03-01T03:38:27;22.23;;;9.18;;
29384;SDS011;16367;48.736;9.218;2023-03-01T03:40:31;21.80;;;9.60;;
29384;SDS011;16367;48.736;9.218;2023-03-01T03:42:35;27.27;;;11.05;;
29384;SDS011;16367;48.736;9.218;2023-03-01T03:44:38;23.10;;;11.07;;
29384;SDS011;16367;48.736;9.218;2023-03-01T03:46:40;26.52;;;10.20;;
29384;SDS011;16367;48.736;9.218;2023-03-01T03:48:44;22.52;;;10.55;;
29384;SDS011;16367;48.736;9.218;2023-03-01T03:50:49;20.75;;;9.15;;
29384;SDS011;16367;48.736;9.218;2023-03-01T03:52:53;28.00;;;11.30;;
29384;SDS011;16367;48.736;9.218;2023-03-01T03:54:56;29.52;;;11.18;;
29384;SDS011;16367;48.736;9.218;2023-03-01T03:56:59;23.52;;;10.63;;
29384;SDS011;16367;48.736;9.218;2023-03-01T03:59:01;23.23;;;9.85;;
29384;SDS011;16367;48.736;9.218;2023-03-01T04:01:04;23.20;;;10.77;;
29384;SDS011;16367;48.736;9.218;2023-03-01T04:03:07;21.23;;;9.43;;
29384;SDS011;16367;48.736;9.218;2023-03-01T04:05:11;24.80;;;11.25;;
29384;SDS011;16367;48.736;9.218;2023-03-01T04:07:17;28.30;;;12.80;;
29384;SDS011;16367;48.736;9.218;2023-03-01T04:09:20;24.25;;;11.45;;
29384;SDS011;16367;48.736;9.218;2023-03-01T04:11:23;26.52;;;10.23;;
29384;SDS011;16367;48.736;9.218;2023-03-01T04:13:28;19.75;;;10.15;;
29384;SDS011;16367;48.736;9.218;2023-03-01T04:15:31;24.90;;;10.85;;
29384;SDS011;16367;48.736;9.218;2023-03-01T04:17:34;26.83;;;10.15;;
29384;SDS011;16367;48.736;9.218;2023-03-01T04:19:37;27.50;;;10.88;;
29384;SDS011;16367;48.736;9.218;2023-03-01T04:21:40;24.80;;;9.32;;
29384;SDS011;16367;48.736;9.218;2023-03-01T04:23:43;22.63;;;9.70;;
29384;SDS011;16367;48.736;9.218;2023-03-01T04:25:47;25.10;;;11.55;;
29384;SDS011;16367;48.736;9.218;2023-03-01T04:27:55;23.88;;;11.98;;
29384;SDS011;16367;48.736;9.218;2023-03-01T04:29:57;23.55;;;10.88;;
29384;SDS011;16367;48.736;9.218;2023-03-01T04:32:00;27.52;;;11.27;;
29384;SDS011;16367;48.736;9.218;2023-03-01T04:34:04;27.13;;;11.68;;
29384;SDS011;16367;48.736;9.218;2023-03-01T04:36:07;26.73;;;11.07;;
29384;SDS011;16367;48.736;9.218;2023-03-01T04:38:11;25.40;;;11.30;;
29384;SDS011;16367;48.736;9.218;2023-03-01T04:40:15;25.02;;;10.68;;
29384;SDS011;16367;48.736;9.218;2023-03-01T04:42:18;30.83;;;12.55;;
29384;SDS011;16367;48.736;9.218;2023-03-01T04:44:21;21.92;;;9.25;;
29384;SDS011;16367;48.736;9.218;2023-03-01T04:46:24;25.15;;;10.95;;
29384;SDS011;16367;48.736;9.218;2023-03-01T04:48:27;25.60;;;11.40;;
29384;SDS011;16367;48.736;9.218;2023-03-01T04:50:30;23.00;;;10.23;;
29384;SDS011;16367;48.736;9.218;2023-03-01T04:52:34;27.13;;;11.23;;
29384;SDS011;16367;48.736;9.218;2023-03-01T04:54:37;24.20;;;10.02;;
29384;SDS011;16367;48.736;9.218;2023-03-01T04:56:41;25.15;;;11.13;;
29384;SDS011;16367;48.736;9.218;2023-03-01T04:58:44;21.75;;;10.38;;
29384;SDS011;16367;48.736;9.218;2023-03-01T05:00:47;22.55;;;10.93;;
29384;SDS011;16367;48.736;9.218;2023-03-01T05:03:15;26.67;;;11.40;;
29384;SDS011;16367;48.736;9.218;2023-03-01T05:05:20;29.75;;;11.85;;
29384;SDS011;16367;48.736;9.218;2023-03-01T05:07:26;24.00;;;11.65;;
29384;SDS011;16367;48.736;9.218;2023-03-01T05:09:29;23.45;;;10.25;;
29384;SDS011;16367;48.736;9.218;2023-03-01T05:11:32;26.10;;;11.85;;
29384;SDS011;16367;48.736;9.218;2023-03-01T05:13:39;24.10;;;10.43;;
29384;SDS011;16367;48.736;9.218;2023-03-01T05:15:42;27.27;;;11.75;;
29384;SDS011;16367;48.736;9.218;2023-03-01T05:17:45;22.20;;;9.95;;
29384;SDS011;16367;48.736;9.218;2023-03-01T05:19:48;24.83;;;11.50;;
29384;SDS011;16367;48.736;9.218;2023-03-01T05:21:51;23.98;;;12.02;;
29384;SDS011;16367;48.736;9.218;2023-03-01T05:24:06;28.38;;;11.85;;
29384;SDS011;16367;48.736;9.218;2023-03-01T05:26:13;29.38;;;11.52;;
29384;SDS011;16367;48.736;9.218;2023-03-01T05:28:36;28.25;;;11.65;;
29384;SDS011;16367;48.736;9.218;2023-03-01T05:30:42;23.98;;;9.75;;
29384;SDS011;16367;48.736;9.218;2023-03-01T05:32:46;24.05;;;10.90;;
29384;SDS011;16367;48.736;9.218;2023-03-01T05:34:50;25.77;;;10.98;;
29384;SDS011;16367;48.736;9.218;2023-03-01T05:36:53;27.80;;;11.65;;
29384;SDS011;16367;48.736;9.218;2023-03-01T05:38:56;23.63;;;10.55;;
29384;SDS011;16367;48.736;9.218;2023-03-01T05:40:59;26.38;;;11.32;;
29384;SDS011;16367;48.736;9.218;2023-03-01T05:43:01;26.95;;;11.07;;
29384;SDS011;16367;48.736;9.218;2023-03-01T05:45:06;24.27;;;11.70;;
29384;SDS011;16367;48.736;9.218;2023-03-01T05:47:12;24.20;;;11.02;;
29384;SDS011;16367;48.736;9.218;2023-03-01T05:49:14;26.17;;;11.15;;
29384;SDS011;16367;48.736;9.218;2023-03-01T05:51:18;26.30;;;11.43;;
29384;SDS011;16367;48.736;9.218;2023-03-01T05:53:21;23.23;;;10.88;;
29384;SDS011;16367;48.736;9.218;2023-03-01T05:55:24;25.25;;;11.88;;
29384;SDS011;16367;48.736;9.218;2023-03-01T05:57:29;23.38;;;10.07;;
29384;SDS011;16367;48.736;9.218;2023-03-01T05:59:32;29.27;;;11.35;;
29384;SDS011;16367;48.736;9.218;2023-03-01T06:01:34;27.30;;;11.30;;
29384;SDS011;16367;48.736;9.218;2023-03-01T06:03:39;29.20;;;11.45;;
29384;SDS011;16367;48.736;9.218;2023-03-01T06:05:42;26.70;;;11.73;;
29384;SDS011;16367;48.736;9.218;2023-03-01T06:07:45;25.27;;;11.45;;
29384;SDS011;16367;48.736;9.218;2023-03-01T06:09:47;27.25;;;11.98;;
29384;SDS011;16367;48.736;9.218;2023-03-01T06:11:50;24.90;;;10.80;;
29384;SDS011;16367;48.736;9.218;2023-03-01T06:13:53;26.85;;;11.77;;
29384;SDS011;16367;48.736;9.218;2023-03-01T06:15:55;23.83;;;10.60;;
29384;SDS011;16367;48.736;9.218;2023-03-01T06:17:58;26.25;;;11.52;;
29384;SDS011;16367;48.736;9.218;2023-03-01T06:20:02;24.40;;;10.63;;
29384;SDS011;16367;48.736;9.218;2023-03-01T06:22:06;24.90;;;10.43;;
29384;SDS011;16367;48.736;9.218;2023-03-01T06:24:09;29.02;;;12.43;;
29384;SDS011;16367;48.736;9.218;2023-03-01T06:26:12;28.02;;;10.45;;
29384;SDS011;16367;48.736;9.218;2023-03-01T06:28:14;28.42;;;11.98;;
29384;SDS011;16367;48.736;9.218;2023-03-01T06:30:18;28.08;;;11.68;;
29384;SDS011;16367;48.736;9.218;2023-03-01T06:32:22;24.00;;;11.23;;
29384;SDS011;16367;48.736;9.218;2023-03-01T06:34:25;27.27;;;10.77;;
29384;SDS011;16367;48.736;9.218;2023-03-01T06:36:29;28.67;;;11.27;;
29384;SDS011;16367;48.736;9.218;2023-03-01T06:38:32;28.73;;;11.20;;
29384;SDS011;16367;48.736;9.218;2023-03-01T06:40:35;27.30;;;12.40;;
29384;SDS011;16367;48.736;9.218;2023-03-01T06:42:39;26.88;;;11.85;;
29384;SDS011;16367;48.736;9.218;2023-03-01T06:44:43;26.23;;;10.57;;
29384;SDS011;16367;48.736;9.218;2023-03-01T06:46:46;30.77;;;12.05;;
29384;SDS011;16367;48.736;9.218;2023-03-01T06:48:49;24.73;;;11.57;;
29384;SDS011;16367;48.736;9.218;2023-03-01T06:50:53;25.95;;;11.43;;
29384;SDS011;16367;48.736;9.218;2023-03-01T06:52:57;29.95;;;11.70;;
29384;SDS011;16367;48.736;9.218;2023-03-01T06:55:00;25.35;;;11.27;;
29384;SDS011;16367;48.736;9.218;2023-03-01T06:57:04;27.67;;;11.73;;
29384;SDS011;16367;48.736;9.218;2023-03-01T06:59:06;27.85;;;11.65;;
29384;SDS011;16367;48.736;9.218;2023-03-01T07:01:09;25.10;;;9.98;;
29384;SDS011;16367;48.736;9.218;2023-03-01T07:03:12;30.77;;;12.38;;
29384;SDS011;16367;48.736;9.218;2023-03-01T07:05:14;28.38;;;12.80;;
29384;SDS011;16367;48.736;9.218;2023-03-01T07:07:17;26.17;;;12.07;;
29384;SDS011;16367;48.736;9.218;2023-03-01T07:09:22;27.23;;;11.38;;
29384;SDS011;16367;48.736;9.218;2023-03-01T07:11:25;30.00;;;12.45;;
29384;SDS011;16367;48.736;9.218;2023-03-01T07:13:28;27.40;;;12.30;;
29384;SDS011;16367;48.736;9.218;2023-03-01T07:15:31;25.08;;;11.10;;
29384;SDS011;16367;48.736;9.218;2023-03-01T07:17:34;29.90;;;13.07;;
29384;SDS011;16367;48.736;9.218;2023-03-01T07:19:36;32.67;;;13.57;;
29384;SDS011;16367;48.736;9.218;2023-03-01T07:21:39;30.13;;;13.10;;
29384;SDS011;16367;48.736;9.218;2023-03-01T07:23:42;24.02;;;10.75;;
29384;SDS011;16367;48.736;9.218;2023-03-01T07:25:51;24.88;;;11.32;;
29384;SDS011;16367;48.736;9.218;2023-03-01T07:27:55;29.77;;;12.02;;
29384;SDS011;16367;48.736;9.218;2023-03-01T07:29:57;24.92;;;10.35;;
29384;SDS011;16367;48.736;9.218;2023-03-01T07:32:00;29.98;;;12.30;;
29384;SDS011;16367;48.736;9.218;2023-03-01T07:34:03;27.80;;;13.05;;
29384;SDS011;16367;48.736;9.218;2023-03-01T07:36:06;30.13;;;12.63;;
29384;SDS011;16367;48.736;9.218;2023-03-01T07:38:09;33.40;;;12.23;;
29384;SDS011;16367;48.736;9.218;2023-03-01T07:40:12;27.30;;;12.50;;
29384;SDS011;16367;48.736;9.218;2023-03-01T07:42:16;27.52;;;11.45;;
29384;SDS011;16367;48.736;9.218;2023-03-01T07:44:19;29.15;;;12.25;;
29384;SDS011;16367;48.736;9.218;2023-03-01T07:46:22;28.38;;;11.70;;
29384;SDS011;16367;48.736;9.218;2023-03-01T07:48:25;25.65;;;10.98;;
29384;SDS011;16367;48.736;9.218;2023-03-01T07:50:27;25.08;;;11.27;;
29384;SDS011;16367;48.736;9.218;2023-03-01T07:52:30;25.45;;;11.27;;
29384;SDS011;16367;48.736;9.218;2023-03-01T07:54:33;27.48;;;12.32;;
29384;SDS011;16367;48.736;9.218;2023-03-01T07:56:36;24.08;;;11.20;;
29384;SDS011;16367;48.736;9.218;2023-03-01T07:58:40;29.92;;;12.05;;
29384;SDS011;16367;48.736;9.218;2023-03-01T08:00:44;25.92;;;12.48;;
29384;SDS011;16367;48.736;9.218;2023-03-01T08:02:47;26.27;;;11.73;;
29384;SDS011;16367;48.736;9.218;2023-03-01T08:04:49;24.50;;;11.43;;
29384;SDS011;16367;48.736;9.218;2023-03-01T08:06:52;23.83;;;11.00;;
29384;SDS011;16367;48.736;9.218;2023-03-01T08:08:55;30.63;;;11.80;;
29384;SDS011;16367;48.736;9.218;2023-03-01T08:11:00;23.42;;;10.93;;
29384;SDS011;16367;48.736;9.218;2023-03-01T08:13:03;22.90;;;12.65;;
29384;SDS011;16367;48.736;9.218;2023-03-01T08:15:08;24.98;;;11.02;;
29384;SDS011;16367;48.736;9.218;2023-03-01T08:17:13;25.67;;;10.95;;
29384;SDS011;16367;48.736;9.218;2023-03-01T08:19:16;23.98;;;10.70;;
29384;SDS011;16367;48.736;9.218;2023-03-01T08:21:18;23.90;;;10.70;;
29384;SDS011;16367;48.736;9.218;2023-03-01T08:23:21;23.77;;;11.32;;
29384;SDS011;16367;48.736;9.218;2023-03-01T08:25:24;24.52;;;11.23;;
29384;SDS011;16367;48.736;9.218;2023-03-01T08:27:27;24.30;;;11.90;;
29384;SDS011;16367;48.736;9.218;2023-03-01T08:29:30;26.73;;;11.98;;
29384;SDS011;16367;48.736;9.218;2023-03-01T08:31:34;23.35;;;10.63;;
29384;SDS011;16367;48.736;9.218;2023-03-01T08:33:39;24.27;;;10.93;;
29384;SDS011;16367;48.736;9.218;2023-03-01T08:35:42;25.52;;;11.45;;
29384;SDS011;16367;48.736;9.218;2023-03-01T08:37:45;23.35;;;11.18;;
29384;SDS011;16367;48.736;9.218;2023-03-01T08:39:47;20.98;;;9.63;;
29384;SDS011;16367;48.736;9.218;2023-03-01T08:41:50;21.35;;;10.35;;
29384;SDS011;16367;48.736;9.218;2023-03-01T08:43:53;19.15;;;10.48;;
29384;SDS011;16367;48.736;9.218;2023-03-01T08:46:00;23.85;;;10.93;;
29384;SDS011;16367;48.736;9.218;2023-03-01T08:48:04;24.58;;;11.48;;
29384;SDS011;16367;48.736;9.218;2023-03-01T08:50:07;20.38;;;10.43;;
29384;SDS011;16367;48.736;9.218;2023-03-01T08:52:11;24.33;;;10.98;;
29384;SDS011;16367;48.736;9.218;2023-03-01T08:54:14;21.17;;;10.75;;
29384;SDS011;16367;48.736;9.218;2023-03-01T08:56:19;19.13;;;10.15;;
29384;SDS011;16367;48.736;9.218;2023-03-01T08:58:22;23.45;;;11.63;;
29384;SDS011;16367;48.736;9.218;2023-03-01T09:00:26;23.70;;;11.05;;
29384;SDS011;16367;48.736;9.218;2023-03-01T09:02:29;23.08;;;12.07;;
29384;SDS011;16367;48.736;9.218;2023-03-01T09:04:33;24.20;;;11.38;;
29384;SDS011;16367;48.736;9.218;2023-03-01T09:06:36;22.73;;;10.60;;
29384;SDS011;16367;48.736;9.218;2023-03-01T09:08:39;23.77;;;11.05;;
29384;SDS011;16367;48.736;9.218;2023-03-01T09:10:44;20.90;;;11.50;;
29384;SDS011;16367;48.736;9.218;2023-03-01T09:12:47;21.63;;;11.38;;
29384;SDS011;16367;48.736;9.218;2023-03-01T09:14:49;24.58;;;11.13;;
29384;SDS011;16367;48.736;9.218;2023-03-01T09:16:52;21.10;;;10.43;;
29384;SDS011;16367;48.736;9.218;2023-03-01T09:18:55;24.52;;;11.45;;
29384;SDS011;16367;48.736;9.218;2023-03-01T09:21:02;21.02;;;10.48;;
29384;SDS011;16367;48.736;9.218;2023-03-01T09:23:08;21.67;;;10.48;;
29384;SDS011;16367;48.736;9.218;2023-03-01T09:25:11;24.10;;;11.23;;
29384;SDS011;16367;48.736;9.218;2023-03-01T09:27:13;21.20;;;9.63;;
29384;SDS011;16367;48.736;9.218;2023-03-01T09:29:19;23.50;;;10.82;;
29384;SDS011;16367;48.736;9.218;2023-03-01T09:31:23;23.05;;;11.50;;
29384;SDS011;16367;48.736;9.218;2023-03-01T09:33:26;19.48;;;10.23;;
29384;SDS011;16367;48.736;9.218;2023-03-01T09:35:29;24.73;;;10.70;;
29384;SDS011;16367;48.736;9.218;2023-03-01T09:37:34;19.27;;;10.30;;
29384;SDS011;16367;48.736;9.218;2023-03-01T09:39:38;20.13;;;10.43;;
29384;SDS011;16367;48.736;9.218;2023-03-01T09:41:45;22.27;;;10.77;;
29384;SDS011;16367;48.736;9.218;2023-03-01T09:43:51;22.58;;;11.38;;
29384;SDS011;16367;48.736;9.218;2023-03-01T09:45:59;22.30;;;11.43;;
29384;SDS011;16367;48.736;9.218;2023-03-01T09:48:08;20.45;;;11.88;;
29384;SDS011;16367;48.736;9.218;2023-03-01T09:50:18;19.55;;;10.95;;
29384;SDS011;16367;48.736;9.218;2023-03-01T09:52:23;24.73;;;11.30;;
29384;SDS011;16367;48.736;9.218;2023-03-01T09:54:32;20.27;;;10.30;;
29384;SDS011;16367;48.736;9.218;2023-03-01T09:56:36;21.17;;;11.07;;
29384;SDS011;16367;48.736;9.218;2023-03-01T09:58:46;19.88;;;10.70;;
29384;SDS011;16367;48.736;9.218;2023-03-01T10:00:53;20.13;;;10.85;;
29384;SDS011;16367;48.736;9.218;2023-03-01T10:03:01;21.90;;;10.15;;
29384;SDS011;16367;48.736;9.218;2023-03-01T10:07:47;19.42;;;10.07;;
29384;SDS011;16367;48.736;9.218;2023-03-01T10:09:58;20.20;;;10.90;;
29384;SDS011;16367;48.736;9.218;2023-03-01T10:12:02;20.10;;;10.70;;
29384;SDS011;16367;48.736;9.218;2023-03-01T10:14:13;19.65;;;10.30;;
29384;SDS011;16367;48.736;9.218;2023-03-01T10:16:34;22.63;;;11.63;;
29384;SDS011;16367;48.736;9.218;2023-03-01T10:18:44;22.38;;;11.27;;
29384;SDS011;16367;48.736;9.218;2023-03-01T10:20:52;22.30;;;10.95;;
29384;SDS011;16367;48.736;9.218;2023-03-01T10:22:57;19.98;;;10.60;;
29384;SDS011;16367;48.736;9.218;2023-03-01T10:25:02;21.67;;;10.45;;
29384;SDS011;16367;48.736;9.218;2023-03-01T10:27:06;21.48;;;10.85;;
29384;SDS011;16367;48.736;9.218;2023-03-01T10:29:15;17.92;;;10.13;;
29384;SDS011;16367;48.736;9.218;2023-03-01T10:31:18;19.13;;;11.20;;
29384;SDS011;16367;48.736;9.218;2023-03-01T10:33:30;21.63;;;11.65;;
29384;SDS011;16367;48.736;9.218;2023-03-01T10:35:35;17.98;;;10.38;;
29384;SDS011;16367;48.736;9.218;2023-03-01T10:37:38;20.45;;;10.77;;
29384;SDS011;16367;48.736;9.218;2023-03-01T10:40:00;24.20;;;11.15;;
29384;SDS011;16367;48.736;9.218;2023-03-01T10:42:18;18.90;;;10.27;;
29384;SDS011;16367;48.736;9.218;2023-03-01T10:44:35;22.10;;;11.35;;
29384;SDS011;16367;48.736;9.218;2023-03-01T10:46:46;18.73;;;10.52;;
29384;SDS011;16367;48.736;9.218;2023-03-01T10:49:05;19.98;;;10.93;;
29384;SDS011;16367;48.736;9.218;2023-03-01T10:51:16;20.58;;;10.77;;
29384;SDS011;16367;48.736;9.218;2023-03-01T10:53:22;21.88;;;10.50;;
29384;SDS011;16367;48.736;9.218;2023-03-01T10:55:31;21.80;;;10.85;;
29384;SDS011;16367;48.736;9.218;2023-03-01T10:57:37;21.05;;;10.73;;
29384;SDS011;16367;48.736;9.218;2023-03-01T10:59:43;20.45;;;11.43;;
29384;SDS011;16367;48.736;9.218;2023-03-01T11:01:46;20.30;;;10.23;;
29384;SDS011;16367;48.736;9.218;2023-03-01T11:04:12;27.13;;;11.95;;
29384;SDS011;16367;48.736;9.218;2023-03-01T11:06:20;22.45;;;11.00;;
29384;SDS011;16367;48.736;9.218;2023-03-01T11:08:35;25.52;;;12.18;;
29384;SDS011;16367;48.736;9.218;2023-03-01T11:10:41;21.92;;;10.77;;
29384;SDS011;16367;48.736;9.218;2023-03-01T11:12:43;21.17;;;11.15;;
29384;SDS011;16367;48.736;9.218;2023-03-01T11:14:46;23.00;;;10.88;;
29384;SDS011;16367;48.736;9.218;2023-03-01T11:16:57;21.88;;;9.95;;
29384;SDS011;16367;48.736;9.218;2023-03-01T11:19:13;21.73;;;9.55;;
29384;SDS011;16367;48.736;9.218;2023-03-01T11:21:19;20.05;;;9.70;;
29384;SDS011;16367;48.736;9.218;2023-03-01T11:23:22;19.17;;;10.05;;
29384;SDS011;16367;48.736;9.218;2023-03-01T11:25:26;21.33;;;10.77;;
29384;SDS011;16367;48.736;9.218;2023-03-01T11:27:36;23.83;;;10.05;;
29384;SDS011;16367;48.736;9.218;2023-03-01T11:29:44;22.48;;;9.60;;
29384;SDS011;16367;48.736;9.218;2023-03-01T11:31:52;23.25;;;10.63;;
29384;SDS011;16367;48.736;9.218;2023-03-01T11:34:02;22.02;;;10.55;;
29384;SDS011;16367;48.736;9.218;2023-03-01T11:36:15;23.05;;;11.15;;
29384;SDS011;16367;48.736;9.218;2023-03-01T11:38:32;20.85;;;10.13;;
29384;SDS011;16367;48.736;9.218;2023-03-01T11:42:48;24.40;;;10.00;;
29384;SDS011;16367;48.736;9.218;2023-03-01T11:44:58;24.98;;;10.60;;
29384;SDS011;16367;48.736;9.218;2023-03-01T11:47:10;20.70;;;9.45;;
29384;SDS011;16367;48.736;9.218;2023-03-01T11:49:33;17.35;;;9.18;;
29384;SDS011;16367;48.736;9.218;2023-03-01T11:51:49;19.30;;;10.00;;
29384;SDS011;16367;48.736;9.218;2023-03-01T11:54:02;19.90;;;10.10;;
29384;SDS011;16367;48.736;9.218;2023-03-01T11:56:15;22.13;;;10.25;;
29384;SDS011;16367;48.736;9.218;2023-03-01T11:58:38;24.73;;;10.10;;
29384;SDS011;16367;48.736;9.218;2023-03-01T12:00:57;21.15;;;9.90;;
29384;SDS011;16367;48.736;9.218;2023-03-01T12:03:22;25.73;;;9.93;;
29384;SDS011;16367;48.736;9.218;2023-03-01T12:05:42;20.55;;;9.88;;
29384;SDS011;16367;48.736;9.218;2023-03-01T12:10:15;20.95;;;9.18;;
29384;SDS011;16367;48.736;9.218;2023-03-01T12:12:30;21.58;;;10.10;;
29384;SDS011;16367;48.736;9.218;2023-03-01T12:14:47;20.85;;;9.50;;
29384;SDS011;16367;48.736;9.218;2023-03-01T12:17:06;22.45;;;10.43;;
29384;SDS011;16367;48.736;9.218;2023-03-01T12:19:21;19.20;;;9.40;;
29384;SDS011;16367;48.736;9.218;2023-03-01T12:21:39;22.77;;;10.40;;
29384;SDS011;16367;48.736;9.218;2023-03-01T12:24:02;21.95;;;9.50;;
29384;SDS011;16367;48.736;9.218;2023-03-01T12:26:19;23.08;;;10.32;;
29384;SDS011;16367;48.736;9.218;2023-03-01T12:28:54;21.40;;;10.13;;